Time;durP1;ratioP1;P1;durP2;ratioP2;P2;SDS_P1;SDS_P2;PMS_P1;PMS_P2;Temp;Humidity;BMP_temperature;BMP_pressure;BME280_temperature;BME280_humidity;BME280_pressure;Samples;Min_cycle;Max_cycle;Signal;HPM_P1;HPM_P2
2021/10/20 00:01:34;;;;;;;;;;;;;;;;;;4994849;28;19992;-66
2021/10/20 00:04:00;;;;;;;;;;;;;;;;;;4994907;28;19913;-64
2021/10/20 00:06:26;;;;;;;;;;;;;;;;;;4994854;28;20331;-65
2021/10/20 00:08:53;;;;;;;;;;;;;;;;;;4993545;28;19910;-66
2021/10/20 00:11:19;;;;;;;;;;;;;;;;;;4994831;28;19924;-66
2021/10/20 00:13:45;;;;;;;;;;;;;;;;;;4995062;28;20329;-67
2021/10/20 00:16:11;;;;;;;;;;;;;;;;;;4993058;28;20008;-67
2021/10/20 00:18:37;;;;;;;;;;;;;;;;;;4994950;28;19997;-65
2021/10/20 00:21:05;;;;;;;;;;;;;;;;;;4993393;28;19913;-66
2021/10/20 00:23:31;;;;;;;;;;;;;;;;;;4993026;28;19906;-66
2021/10/20 00:26:00;;;;;;;;;;;;;;;;;;4994554;28;20063;-64
2021/10/20 00:28:26;;;;;;;;;;;;;;;;;;4993201;28;19905;-65
2021/10/20 00:30:52;;;;;;;;;;;;;;;;;;4994481;28;20255;-66
2021/10/20 00:33:18;;;;;;;;;;;;;;;;;;4994427;28;20044;-69
2021/10/20 00:35:44;;;;;;;;;;;;;;;;;;4993151;28;19945;-67
2021/10/20 00:38:10;;;;;;;;;;;;;;;;;;4994315;28;20016;-67
2021/10/20 00:40:36;;;;;;;;;;;;;;;;;;4993061;28;19906;-66
2021/10/20 00:43:02;;;;;;;;;;;;;;;;;;4994343;28;19906;-66
2021/10/20 00:45:28;;;;;;;;;;;;;;;;;;4994257;28;19933;-66
2021/10/20 00:47:55;;;;;;;;;;;;;;;;;;4994156;28;19906;-67
2021/10/20 00:50:21;;;;;;;;;;;;;;;;;;4994586;28;19910;-67
2021/10/20 00:52:47;;;;;;;;;;;;;;;;;;4994239;28;19906;-67
2021/10/20 00:55:13;;;;;;;;;;;;;;;;;;4994162;28;19906;-66
2021/10/20 00:57:41;;;;;;;;;;;;;;;;;;4994062;28;19968;-68
2021/10/20 01:00:07;;;;;;;;;;;;;;;;;;4994142;28;19960;-66
2021/10/20 01:02:33;;;;;;;;;;;;;;;;;;4994368;28;20000;-65
2021/10/20 01:04:59;;;;;;;;;;;;;;;;;;4993802;28;19987;-70
2021/10/20 01:07:25;;;;;;;;;;;;;;;;;;4993759;28;20378;-67
2021/10/20 01:09:51;;;;;;;;;;;;;;;;;;4994082;28;20258;-66
2021/10/20 01:12:17;;;;;;;;;;;;;;;;;;4993980;28;19916;-67
2021/10/20 01:14:43;;;;;;;;;;;;;;;;;;4992709;28;20354;-66
2021/10/20 01:17:09;;;;;;;;;;;;;;;;;;4993349;28;19960;-64
2021/10/20 01:19:35;;;;;;;;;;;;;;;;;;4992715;28;20351;-64
2021/10/20 01:22:01;;;;;;;;;;;;;;;;;;4993949;28;19996;-66
2021/10/20 01:24:27;;;;;;;;;;;;;;;;;;4993972;28;19917;-66
2021/10/20 01:26:54;;;;;;;;;;;;;;;;;;4993909;28;20001;-67
2021/10/20 01:29:20;;;;;;;;;;;;;;;;;;4993921;28;19953;-68
2021/10/20 01:31:46;;;;;;;;;;;;;;;;;;4993833;28;19906;-67
2021/10/20 01:34:13;;;;;;;;;;;;;;;;;;4993837;28;20347;-67
2021/10/20 01:36:39;;;;;;;;;;;;;;;;;;4993741;28;20018;-67
2021/10/20 01:39:05;;;;;;;;;;;;;;;;;;4992520;28;19905;-68
2021/10/20 01:41:33;;;;;;;;;;;;;;;;;;4994092;28;19956;-66
2021/10/20 01:43:59;;;;;;;;;;;;;;;;;;4993760;28;19976;-65
2021/10/20 01:46:25;;;;;;;;;;;;;;;;;;4993751;28;19906;-65
2021/10/20 01:48:51;;;;;;;;;;;;;;;;;;4992376;28;19936;-67
2021/10/20 01:51:17;;;;;;;;;;;;;;;;;;4993460;28;20418;-64
2021/10/20 01:53:43;;;;;;;;;;;;;;;;;;4993728;28;19906;-65
2021/10/20 01:56:09;;;;;;;;;;;;;;;;;;4993323;28;20402;-63
2021/10/20 01:58:36;;;;;;;;;;;;;;;;;;4993913;28;20005;-66
2021/10/20 02:01:07;;;;;;;;;;;;;;;;;;4996905;28;19906;-66
2021/10/20 02:03:33;;;;;;;;;;;;;;;;;;4997296;28;19915;-67
2021/10/20 02:05:59;;;;;;;;;;;;;;;;;;4997458;28;19910;-67
2021/10/20 02:08:25;;;;;;;;;;;;;;;;;;4995801;28;19914;-68
2021/10/20 02:10:51;;;;;;;;;;;;;;;;;;4997149;28;19910;-67
2021/10/20 02:13:17;;;;;;;;;;;;;;;;;;4995713;28;19909;-66
2021/10/20 02:15:43;;;;;;;;;;;;;;;;;;4995672;28;19960;-67
2021/10/20 02:18:09;;;;;;;;;;;;;;;;;;4996328;28;19917;-66
2021/10/20 02:20:35;;;;;;;;;;;;;;;;;;4996949;28;19933;-67
2021/10/20 02:23:01;;;;;;;;;;;;;;;;;;4997094;28;19906;-70
2021/10/20 02:25:27;;;;;;;;;;;;;;;;;;4996788;28;19910;-66
2021/10/20 02:27:53;;;;;;;;;;;;;;;;;;4996743;28;20358;-68
2021/10/20 02:30:19;;;;;;;;;;;;;;;;;;4995435;28;19905;-66
2021/10/20 02:32:45;;;;;;;;;;;;;;;;;;4995375;28;19910;-66
2021/10/20 02:35:11;;;;;;;;;;;;;;;;;;4996930;28;20039;-65
2021/10/20 02:37:38;;;;;;;;;;;;;;;;;;4996509;28;19913;-65
2021/10/20 02:40:04;;;;;;;;;;;;;;;;;;4995327;28;19910;-67
2021/10/20 02:42:30;;;;;;;;;;;;;;;;;;4995221;28;20314;-67
2021/10/20 02:44:56;;;;;;;;;;;;;;;;;;4996441;28;20375;-65
2021/10/20 02:47:22;;;;;;;;;;;;;;;;;;4996379;28;19906;-64
2021/10/20 02:49:48;;;;;;;;;;;;;;;;;;4996387;28;20136;-66
2021/10/20 02:52:14;;;;;;;;;;;;;;;;;;4996637;28;19960;-67
2021/10/20 02:54:41;;;;;;;;;;;;;;;;;;4996235;28;19960;-65
2021/10/20 02:57:07;;;;;;;;;;;;;;;;;;4996133;28;20355;-65
2021/10/20 02:59:33;;;;;;;;;;;;;;;;;;4996414;28;20021;-69
2021/10/20 03:01:59;;;;;;;;;;;;;;;;;;4995863;28;19949;-67
2021/10/20 03:04:25;;;;;;;;;;;;;;;;;;4996095;28;19917;-66
2021/10/20 03:06:51;;;;;;;;;;;;;;;;;;4996029;28;19957;-66
2021/10/20 03:09:17;;;;;;;;;;;;;;;;;;4995906;28;19945;-66
2021/10/20 03:11:43;;;;;;;;;;;6.10;99.90;;;;;;4993586;28;19955;-67
2021/10/20 03:14:14;;;;;;;;;;;6.10;99.90;;;;;;4994664;28;19913;-66
2021/10/20 03:16:41;;;;;;;;;;;6.00;99.90;;;;;;4994431;28;19992;-66
2021/10/20 03:19:06;;;;;;;;;;;6.00;99.90;;;;;;4995899;28;19909;-68
2021/10/20 03:21:32;;;;;;;;;;;5.90;99.90;;;;;;4995443;28;19989;-66
2021/10/20 03:24:07;;;;;;;;;;;5.90;99.90;;;;;;4995727;28;19964;-66
2021/10/20 03:26:33;;;;;;;;;;;5.80;99.90;;;;;;4995718;28;19906;-67
2021/10/20 03:28:59;;;;;;;;;;;5.80;99.90;;;;;;4995610;28;20306;-65
2021/10/20 03:31:24;;;;;;;;;;;5.70;99.90;;;;;;4995618;28;19905;-67
2021/10/20 03:33:52;;;;;;;;;;;5.70;99.90;;;;;;4995246;28;19906;-67
2021/10/20 03:36:18;;;;;;;;;;;5.70;99.90;;;;;;4995401;28;19921;-66
2021/10/20 03:38:44;;;;;;;;;;;5.70;99.90;;;;;;4995413;28;19909;-66
2021/10/20 03:41:09;;;;;;;;;;;5.80;99.90;;;;;;4995426;28;19906;-68
2021/10/20 03:43:35;;;;;;;;;;;5.80;99.90;;;;;;4995300;28;19922;-66
2021/10/20 03:46:01;;;;;;;;;;;5.90;99.90;;;;;;4995544;28;20246;-65
2021/10/20 03:48:26;;;;;;;;;;;6.00;99.90;;;;;;4995238;28;19956;-68
2021/10/20 03:50:52;;;;;;;;;;;6.00;99.90;;;;;;4995207;28;19909;-67
2021/10/20 03:53:18;;;;;;;;;;;6.00;99.90;;;;;;4993892;28;19913;-67
2021/10/20 03:55:44;;;;;;;;;;;6.10;99.90;;;;;;4993845;28;19906;-67
2021/10/20 03:58:09;;;;;;;;;;;6.20;99.90;;;;;;4993740;28;20012;-68
2021/10/20 04:00:35;;;;;;;;;;;6.20;99.90;;;;;;4995137;28;20274;-66
2021/10/20 04:03:06;;;;;;;;;;;6.30;99.90;;;;;;4994979;28;19913;-67
2021/10/20 04:05:32;;;;;;;;;;;6.30;99.90;;;;;;4994695;28;19912;-67
2021/10/20 04:07:58;;;;;;;;;;;6.40;99.90;;;;;;4995200;28;19910;-67
2021/10/20 04:10:28;;;;;;;;;;;6.50;99.90;;;;;;4994814;28;19913;-67
2021/10/20 04:12:54;;;;;;;;;;;6.60;99.90;;;;;;4994800;28;19909;-67
2021/10/20 04:15:21;;;;;;;;;;;6.70;99.90;;;;;;4993493;28;20353;-66
2021/10/20 04:17:47;;;;;;;;;;;6.70;99.90;;;;;;4994414;28;19925;-68
2021/10/20 04:20:14;;;;;;;;;;;6.70;99.90;;;;;;4994645;28;19910;-68
2021/10/20 04:22:40;;;;;;;;;;;6.60;99.90;;;;;;4993049;28;20313;-68
2021/10/20 04:25:07;;;;;;;;;;;6.60;99.90;;;;;;4994584;28;19952;-67
2021/10/20 04:27:33;;;;;;;;;;;6.70;99.90;;;;;;4993309;28;19906;-65
2021/10/20 04:29:59;;;;;;;;;;;6.80;99.90;;;;;;4994535;28;19913;-65
2021/10/20 04:32:25;;;;;;;;;;;6.80;99.90;;;;;;4994516;28;19910;-68
2021/10/20 04:34:55;;;;;;;;;;;6.80;99.90;;;;;;4994740;28;19909;-66
2021/10/20 04:37:25;;;;;;;;;;;6.80;99.90;;;;;;4994504;28;20433;-67
2021/10/20 04:39:52;;;;;;;;;;;6.90;99.90;;;;;;4985445;28;19933;-69
2021/10/20 04:42:18;;;;;;;;;;;6.90;99.90;;;;;;4990503;28;19910;-68
2021/10/20 04:44:44;;;;;;;;;;;6.90;99.90;;;;;;4993438;28;19906;-70
2021/10/20 04:47:09;;;;;;;;;;;6.90;99.90;;;;;;4993665;28;19993;-69
2021/10/20 04:49:35;;;;;;;;;;;6.90;99.90;;;;;;4994270;28;20354;-66
2021/10/20 04:52:01;;;;;;;;;;;6.90;99.90;;;;;;4994144;28;20270;-69
2021/10/20 04:54:26;;;;;;;;;;;6.80;99.90;;;;;;4993794;28;19997;-68
2021/10/20 04:56:52;;;;;;;;;;;6.80;99.90;;;;;;4993955;28;19914;-68
2021/10/20 04:59:18;;;;;;;;;;;6.80;99.90;;;;;;4993632;28;19917;-66
2021/10/20 05:01:44;;;;;;;;;;;6.80;99.90;;;;;;4992822;28;19909;-70
2021/10/20 05:04:09;;;;;;;;;;;6.80;99.90;;;;;;4994072;28;20343;-66
2021/10/20 05:06:35;;;;;;;;;;;6.80;99.90;;;;;;4994169;28;19972;-68
2021/10/20 05:09:00;;;;;;;;;;;6.80;99.90;;;;;;4993851;28;20385;-70
2021/10/20 05:11:26;;;;;;;;;;;6.80;99.90;;;;;;4992370;28;20318;-70
2021/10/20 05:13:52;;;;;;;;;;;6.80;99.90;;;;;;4993850;28;19905;-67
2021/10/20 05:16:17;;;;;;;;;;;6.80;99.90;;;;;;4993497;28;19957;-69
2021/10/20 05:18:43;;;;;;;;;;;6.90;99.90;;;;;;4992029;28;19918;-69
2021/10/20 05:21:09;;;;;;;;;;;6.90;99.90;;;;;;4974926;28;19906;-68
2021/10/20 05:23:34;;;;;;;;;;;6.90;99.90;;;;;;4974505;28;19910;-69
2021/10/20 05:26:00;;;;;;;;;;;6.90;99.90;;;;;;4974311;28;19910;-68
2021/10/20 05:28:26;;;;;;;;;;;6.90;99.90;;;;;;4973006;28;19906;-68
2021/10/20 05:30:51;;;;;;;;;;;6.90;99.90;;;;;;4972941;28;19945;-67
2021/10/20 05:33:17;;;;;;;;;;;6.90;99.90;;;;;;4973775;28;19906;-67
2021/10/20 05:35:43;;;;;;;;;;;6.90;99.90;;;;;;4975420;28;19912;-69
2021/10/20 05:38:08;;;;;;;;;;;7.00;99.90;;;;;;4976604;28;19918;-70
2021/10/20 05:40:34;;;;;;;;;;;7.00;99.90;;;;;;4976610;28;20340;-69
2021/10/20 05:43:01;;;;;;;;;;;7.00;99.90;;;;;;4977524;28;20326;-71
2021/10/20 05:45:26;;;;;;;;;;;7.00;99.90;;;;;;4977703;28;20715;-68
2021/10/20 05:47:52;;;;;;;;;;;7.00;99.90;;;;;;4977774;28;20001;-68
2021/10/20 05:50:18;;;;;;;;;;;7.00;99.90;;;;;;4976517;28;19909;-71
2021/10/20 05:52:44;;;;;;;;;;;6.90;99.90;;;;;;4977810;28;19913;-68
2021/10/20 05:55:09;;;;;;;;;;;7.00;99.90;;;;;;4977672;28;19906;-66
2021/10/20 05:57:37;;;;;;;;;;;6.90;99.90;;;;;;4976294;28;19981;-70
2021/10/20 06:00:04;;;;;;;;;;;7.00;99.90;;;;;;4977592;28;19905;-66
2021/10/20 06:02:29;;;;;;;;;;;7.20;99.90;;;;;;4976124;28;19906;-67
2021/10/20 06:04:55;;;;;;;;;;;7.20;99.90;;;;;;4976863;28;20267;-70
2021/10/20 06:07:21;;;;;;;;;;;7.20;99.90;;;;;;4993532;28;19916;-66
2021/10/20 06:09:46;;;;;;;;;;;7.30;99.90;;;;;;4997036;28;19945;-67
2021/10/20 06:12:12;;;;;;;;;;;7.30;99.90;;;;;;4995754;28;20415;-68
2021/10/20 06:14:38;;;;;;;;;;;7.30;99.90;;;;;;4996970;28;20000;-67
2021/10/20 06:17:03;;;;;;;;;;;7.40;99.90;;;;;;4996538;28;19918;-65
2021/10/20 06:19:29;;;;;;;;;;;7.50;99.90;;;;;;4995609;28;19958;-68
2021/10/20 06:21:55;;;;;;;;;;;7.50;99.90;;;;;;4995552;28;19909;-68
2021/10/20 06:24:21;;;;;;;;;;;7.60;99.90;;;;;;4996701;28;19928;-69
2021/10/20 06:26:46;;;;;;;;;;;7.60;99.90;;;;;;4996403;28;20343;-66
2021/10/20 06:29:12;;;;;;;;;;;7.60;99.90;;;;;;4996655;28;19913;-66
2021/10/20 06:31:38;;;;;;;;;;;7.70;99.90;;;;;;4996286;28;20286;-68
2021/10/20 06:34:04;;;;;;;;;;;7.70;99.90;;;;;;4995310;28;19905;-65
2021/10/20 06:36:31;;;;;;;;;;;7.70;99.90;;;;;;4993281;28;19917;-67
2021/10/20 06:38:57;;;;;;;;;;;7.70;99.90;;;;;;4977120;28;20036;-67
2021/10/20 06:41:23;;;;;;;;;;;7.70;99.90;;;;;;4975791;28;19949;-66
2021/10/20 06:43:48;;;;;;;;;;;7.80;99.90;;;;;;4977003;28;20418;-68
2021/10/20 06:46:16;;;;;;;;;;;7.80;99.90;;;;;;4975308;28;20359;-69
2021/10/20 06:48:42;;;;;;;;;;;7.80;99.90;;;;;;4973304;28;20359;-67
2021/10/20 06:51:09;;;;;;;;;;;7.90;99.90;;;;;;4986533;28;20000;-66
2021/10/20 06:53:35;;;;;;;;;;;8.00;99.90;;;;;;4995929;28;19906;-66
2021/10/20 06:56:02;;;;;;;;;;;8.00;99.90;;;;;;4994638;28;19905;-64
2021/10/20 06:58:27;;;;;;;;;;;8.10;99.90;;;;;;4995925;28;19918;-67
2021/10/20 07:00:53;;;;;;;;;;;8.20;99.90;;;;;;4994537;28;19910;-68
2021/10/20 07:03:19;;;;;;;;;;;;;;;;;;4995660;28;20020;-66
2021/10/20 07:05:45;;;;;;;;;;;;;;;;;;4995814;28;19906;-67
2021/10/20 07:08:11;;;;;;;;;;;;;;;;;;4995595;28;19910;-68
2021/10/20 07:10:37;;;;;;;;;;;;;;;;;;4994113;28;19909;-68
2021/10/20 07:13:03;;;;;;;;;;;;;;;;;;4994408;28;19992;-69
2021/10/20 07:18:14;;;;;;;;;;;;;;;;;;4995030;28;19932;-68
2021/10/20 07:20:40;;;;;;;;;;;;;;;;;;4995665;28;19905;-70
2021/10/20 07:23:06;;;;;;;;;;;;;;;;;;4994464;28;20406;-70
2021/10/20 07:25:32;;;;;;;;;;;;;;;;;;4994344;28;19988;-70
2021/10/20 07:27:58;;;;;;;;;;;;;;;;;;4995622;28;20001;-69
2021/10/20 07:30:24;;;;;;;;;;;;;;;;;;4994291;28;19949;-70
2021/10/20 07:32:50;;;;;;;;;;;;;;;;;;4995845;28;19937;-69
2021/10/20 07:35:16;;;;;;;;;;;;;;;;;;4995287;28;20365;-70
2021/10/20 07:37:42;;;;;;;;;;;;;;;;;;4995338;28;19909;-69
2021/10/20 07:40:08;;;;;;;;;;;;;;;;;;4995391;28;19909;-69
2021/10/20 07:42:37;;;;;;;;;;;;;;;;;;4995352;28;20400;-69
2021/10/20 07:45:03;;;;;;;;;;;;;;;;;;4993891;28;19906;-70
2021/10/20 07:47:29;;;;;;;;;;;;;;;;;;4995243;28;19917;-69
2021/10/20 07:49:55;;;;;;;;;;;;;;;;;;4995192;28;19906;-70
2021/10/20 07:52:25;;;;;;;;;;;;;;;;;;4994181;28;19906;-70
2021/10/20 07:54:51;;;;;;;;;;;;;;;;;;4974079;28;19910;-68
2021/10/20 07:57:17;;;;;;;;;;;;;;;;;;4989872;28;19932;-69
2021/10/20 07:59:43;;;;;;;;;;;;;;;;;;4994837;28;20410;-70
2021/10/20 08:02:09;;;;;;;;;;;;;;;;;;4993645;28;19949;-70
2021/10/20 08:04:35;;;;;;;;;;;;;;;;;;4993312;28;19945;-68
2021/10/20 08:07:01;;;;;;;;;;;;;;;;;;4993161;28;19905;-70
2021/10/20 08:09:27;;;;;;;;;;;;;;;;;;4994516;28;20414;-70
2021/10/20 08:11:53;;;;;;;;;;;;;;;;;;4994884;28;19993;-69
2021/10/20 08:14:19;;;;;;;;;;;;;;;;;;4994586;28;20270;-68
2021/10/20 08:16:45;;;;;;;;;;;;;;;;;;4992763;28;19910;-67
2021/10/20 08:19:11;;;;;;;;;;;;;;;;;;4994561;28;19952;-68
2021/10/20 08:21:37;;;;;;;;;;;;;;;;;;4994363;28;19906;-68
2021/10/20 08:24:03;;;;;;;;;;;12.20;99.90;;;;;;4992530;28;20004;-69
2021/10/20 08:26:29;;;;;;;;;;;12.10;99.90;;;;;;4994019;28;19988;-66
2021/10/20 08:28:55;;;;;;;;;;;12.30;99.90;;;;;;4992794;28;19906;-70
2021/10/20 08:31:21;;;;;;;;;;;12.40;99.90;;;;;;4994373;28;19953;-68
2021/10/20 08:33:46;;;;;;;;;;;12.40;99.90;;;;;;4993837;28;19952;-69
2021/10/20 08:36:12;;;;;;;;;;;12.60;99.90;;;;;;4993595;28;19906;-69
2021/10/20 08:38:38;;;;;;;;;;;12.70;99.90;;;;;;4993752;28;19909;-70
2021/10/20 08:41:04;;;;;;;;;;;12.80;99.90;;;;;;4994022;28;19906;-70
2021/10/20 08:43:30;;;;;;;;;;;;;;;;;;4993261;28;19935;-69
2021/10/20 08:45:55;;;;;;;;;;;13.00;99.90;;;;;;4992617;28;20282;-69
2021/10/20 08:48:22;;;;;;;;;;;13.30;99.90;;;;;;4992411;28;19905;-68
2021/10/20 08:50:48;;;;;;;;;;;;;;;;;;4992609;28;19980;-68
2021/10/20 08:53:14;;;;;;;;;;;13.50;99.90;;;;;;4991833;28;20406;-67
2021/10/20 08:55:39;;;;;;;;;;;13.80;99.90;;;;;;4994304;28;19905;-68
2021/10/20 08:58:05;;;;;;;;;;;14.00;99.90;;;;;;4992493;28;19914;-66
2021/10/20 09:00:31;;;;;;;;;;;14.10;99.90;;;;;;4993871;28;19921;-68
2021/10/20 09:02:56;;;;;;;;;;;14.20;99.90;;;;;;4993609;28;19909;-69
2021/10/20 09:05:26;;;;;;;;;;;14.30;99.90;;;;;;4993885;28;19952;-68
2021/10/20 09:07:54;;;;;;;;;;;14.50;99.90;;;;;;4993567;28;20244;-68
2021/10/20 09:10:20;;;;;;;;;;;14.60;99.90;;;;;;4977694;28;20409;-70
2021/10/20 09:12:46;;;;;;;;;;;14.80;99.90;;;;;;4978240;28;19910;-67
2021/10/20 09:15:20;;;;;;;;;;;14.90;99.90;;;;;;4978231;28;20248;-69
2021/10/20 09:17:57;;;;;;;;;;;15.10;99.90;;;;;;4978326;28;19918;-69
2021/10/20 09:20:24;;;;;;;;;;;15.30;99.90;;;;;;4978411;28;19910;-69
2021/10/20 09:22:56;;;;;;;;;;;15.40;99.90;;;;;;4978320;28;19910;-70
2021/10/20 09:25:22;;;;;;;;;;;15.50;99.90;;;;;;4978365;28;19953;-70
2021/10/20 09:27:48;;;;;;;;;;;15.60;99.90;;;;;;4978172;28;19965;-70
2021/10/20 09:30:14;;;;;;;;;;;15.60;99.90;;;;;;4978232;28;19906;-73
2021/10/20 09:32:41;;;;;;;;;;;15.90;99.90;;;;;;4985703;28;19928;-71
2021/10/20 09:35:10;;;;;;;;;;;16.00;99.90;;;;;;4997588;28;19906;-69
2021/10/20 09:37:37;;;;;;;;;;;16.20;99.90;;;;;;4992597;28;19959;-69
2021/10/20 09:40:04;;;;;;;;;;;16.40;99.90;;;;;;4981627;28;20262;-73
2021/10/20 09:42:30;;;;;;;;;;;16.50;99.90;;;;;;4996446;28;19913;-69
2021/10/20 09:44:56;;;;;;;;;;;16.70;99.90;;;;;;4997250;28;19912;-71
2021/10/20 09:47:24;;;;;;;;;;;16.90;99.90;;;;;;4996852;28;19905;-71
2021/10/20 09:49:51;;;;;;;;;;;16.90;99.60;;;;;;4995242;28;19910;-70
2021/10/20 09:52:20;;;;;;;;;;;17.10;98.60;;;;;;4995800;28;19910;-70
2021/10/20 09:54:46;;;;;;;;;;;17.30;99.50;;;;;;4997209;28;19906;-71
2021/10/20 09:57:13;;;;;;;;;;;17.50;97.50;;;;;;4996781;28;19957;-71
2021/10/20 09:59:39;;;;;;;;;;;17.70;98.30;;;;;;4996905;28;19952;-71
2021/10/20 10:02:04;;;;;;;;;;;18.10;97.80;;;;;;4995688;28;19953;-71
2021/10/20 10:04:30;;;;;;;;;;;18.40;96.00;;;;;;4997022;28;19953;-73
2021/10/20 10:06:56;;;;;;;;;;;18.80;95.20;;;;;;4980262;28;19913;-70
2021/10/20 10:09:22;;;;;;;;;;;19.30;95.00;;;;;;4996925;28;20339;-70
2021/10/20 10:11:49;;;;;;;;;;;19.90;92.90;;;;;;4995071;28;19906;-72
2021/10/20 10:14:18;;;;;;;;;;;20.40;92.60;;;;;;4996556;28;19912;-72
2021/10/20 10:16:45;;;;;;;;;;;21.00;90.20;;;;;;4996188;28;19913;-73
2021/10/20 10:19:11;;;;;;;;;;;21.70;86.90;;;;;;4995401;28;19910;-72
2021/10/20 10:21:40;;;;;;;;;;;21.80;81.50;;;;;;4995435;28;19956;-71
2021/10/20 10:24:15;;;;;;;;;;;22.60;81.40;;;;;;4995829;28;19910;-71
2021/10/20 10:26:58;;;;;;;;;;;23.40;76.90;;;;;;4995328;28;20413;-71
2021/10/20 10:29:24;;;;;;;;;;;23.80;73.60;;;;;;4994896;28;19910;-71
2021/10/20 10:31:51;;;;;;;;;;;25.00;75.00;;;;;;4996296;28;19972;-70
2021/10/20 10:34:25;;;;;;;;;;;25.70;69.30;;;;;;4994821;28;19916;-71
2021/10/20 10:36:55;;;;;;;;;;;25.70;66.80;;;;;;4995125;28;19914;-71
2021/10/20 10:39:21;;;;;;;;;;;26.20;64.60;;;;;;4996301;28;19917;-69
2021/10/20 10:41:50;;;;;;;;;;;;;;;;;;4996139;28;19909;-71
2021/10/20 10:44:16;;;;;;;;;;;;;;;;;;4995007;28;19905;-70
2021/10/20 10:46:42;;;;;;;;;;;;;;;;;;4996351;28;19912;-70
2021/10/20 10:49:08;;;;;;;;;;;;;;;;;;4995961;28;19910;-70
2021/10/20 10:51:34;;;;;;;;;;;27.20;66.10;;;;;;4989948;28;19905;-71
2021/10/20 10:53:59;;;;;;;;;;;28.10;58.20;;;;;;4994317;28;19913;-72
2021/10/20 10:56:26;;;;;;;;;;;27.80;56.60;;;;;;4995436;28;19909;-70
2021/10/20 10:58:55;;;;;;;;;;;28.60;54.30;;;;;;4995674;28;19909;-70
2021/10/20 11:01:21;;;;;;;;;;;;;;;;;;4995875;28;19912;-71
2021/10/20 11:04:07;;;;;;;;;;;30.60;51.00;;;;;;4996271;28;19929;-72
2021/10/20 11:06:34;;;;;;;;;;;30.60;50.50;;;;;;4996072;28;19952;-71
2021/10/20 11:09:00;;;;;;;;;;;;;;;;;;4979070;28;20001;-71
2021/10/20 11:11:25;;;;;;;;;;;;;;;;;;4974891;28;19971;-71
2021/10/20 11:13:51;;;;;;;;;;;;;;;;;;4984193;28;19905;-72
2021/10/20 11:16:21;;;;;;;;;;;30.80;51.20;;;;;;4994319;28;19941;-70
2021/10/20 11:18:50;;;;;;;;;;;30.60;47.40;;;;;;4995114;28;20278;-71
2021/10/20 11:21:16;;;;;;;;;;;30.40;48.60;;;;;;4994342;28;19913;-70
2021/10/20 11:23:44;;;;;;;;;;;28.60;51.30;;;;;;4995171;28;19906;-70
2021/10/20 11:26:10;;;;;;;;;;;26.90;55.00;;;;;;4995627;28;19909;-71
2021/10/20 11:28:37;;;;;;;;;;;26.90;56.80;;;;;;4995478;28;19906;-71
2021/10/20 11:31:07;;;;;;;;;;;29.30;54.10;;;;;;4995457;28;20000;-71
2021/10/20 11:33:32;;;;;;;;;;;29.90;51.10;;;;;;4993967;28;19906;-71
2021/10/20 11:35:59;;;;;;;;;;;;;;;;;;4993723;28;20358;-72
2021/10/20 11:38:25;;;;;;;;;;;31.30;54.50;;;;;;4994930;28;19913;-72
2021/10/20 11:40:55;;;;;;;;;;;33.10;48.40;;;;;;4994956;28;19909;-72
2021/10/20 11:43:23;;;;;;;;;;;33.80;47.50;;;;;;4994663;28;20004;-71
2021/10/20 11:45:48;;;;;;;;;;;33.90;44.30;;;;;;4994009;28;20000;-73
2021/10/20 11:48:18;;;;;;;;;;;34.10;44.30;;;;;;4995320;28;20402;-72
2021/10/20 11:50:47;;;;;;;;;;;34.60;45.60;;;;;;4995187;28;19913;-73
2021/10/20 11:53:13;;;;;;;;;;;34.50;45.20;;;;;;4993884;28;20474;-70
2021/10/20 11:55:43;;;;;;;;;;;32.70;44.60;;;;;;4995342;28;20314;-70
2021/10/20 11:58:26;;;;;;;;;;;30.10;47.50;;;;;;4994639;28;20024;-70
2021/10/20 12:00:53;;;;;;;;;;;27.80;51.00;;;;;;4990308;28;20335;-68
2021/10/20 12:03:19;;;;;;;;;;;25.20;53.80;;;;;;4993491;28;19910;-69
2021/10/20 12:05:46;;;;;;;;;;;24.80;55.80;;;;;;4993334;28;19913;-68
2021/10/20 12:08:11;;;;;;;;;;;24.90;56.60;;;;;;4993359;28;19909;-68
2021/10/20 12:10:38;;;;;;;;;;;24.10;59.70;;;;;;4994601;28;19913;-69
2021/10/20 12:13:04;;;;;;;;;;;23.60;60.10;;;;;;4993359;28;19905;-68
2021/10/20 12:15:29;;;;;;;;;;;23.10;60.30;;;;;;4993300;28;20090;-68
2021/10/20 12:17:55;;;;;;;;;;;22.90;60.20;;;;;;4994460;28;19918;-66
2021/10/20 12:20:21;;;;;;;;;;;23.70;59.30;;;;;;4994343;28;19945;-67
2021/10/20 12:22:47;;;;;;;;;;;23.70;59.90;;;;;;4994299;28;19909;-67
2021/10/20 12:25:13;;;;;;;;;;;24.90;59.50;;;;;;4993197;28;19906;-67
2021/10/20 12:27:40;;;;;;;;;;;24.00;58.40;;;;;;4994468;28;19913;-65
2021/10/20 12:30:08;;;;;;;;;;;24.40;60.10;;;;;;4993109;28;20351;-66
2021/10/20 12:32:39;;;;;;;;;;;23.70;60.50;;;;;;4993073;28;19909;-68
2021/10/20 12:35:15;;;;;;;;;;;23.60;60.80;;;;;;4977371;28;19910;-67
2021/10/20 12:37:46;;;;;;;;;;;23.10;62.70;;;;;;4974698;28;19917;-68
2021/10/20 12:40:14;;;;;;;;;;;22.70;61.60;;;;;;4974702;28;19914;-68
2021/10/20 12:42:39;;;;;;;;;;;23.60;62.90;;;;;;4974633;28;20384;-67
2021/10/20 12:45:06;;;;;;;;;;;24.30;59.90;;;;;;4974198;28;19910;-67
2021/10/20 12:47:32;;;;;;;;;;;24.20;59.30;;;;;;4992195;28;19952;-68
2021/10/20 12:50:03;;;;;;;;;;;23.90;61.00;;;;;;4994353;28;20343;-67
2021/10/20 12:52:29;;;;;;;;;;;23.70;61.10;;;;;;4993983;28;19964;-68
2021/10/20 12:54:55;;;;;;;;;;;23.20;61.90;;;;;;4994101;28;19910;-69
2021/10/20 12:57:21;;;;;;;;;;;22.80;63.40;;;;;;4980075;28;20008;-69
2021/10/20 12:59:47;;;;;;;;;;;25.00;61.10;;;;;;4993653;28;19937;-68
2021/10/20 13:02:13;;;;;;;;;;;27.30;56.40;;;;;;4993920;28;19905;-67
2021/10/20 13:04:39;;;;;;;;;;;29.30;53.00;;;;;;4994216;28;19916;-68
2021/10/20 13:07:05;;;;;;;;;;;28.10;51.70;;;;;;4993612;28;19906;-69
2021/10/20 13:09:30;;;;;;;;;;;25.80;55.70;;;;;;4994139;28;19913;-68
2021/10/20 13:11:56;;;;;;;;;;;25.30;57.30;;;;;;4993625;28;19906;-68
2021/10/20 13:14:22;;;;;;;;;;;24.50;59.40;;;;;;4993831;28;20349;-68
2021/10/20 13:16:48;;;;;;;;;;;23.70;60.00;;;;;;4993469;28;19914;-68
2021/10/20 13:19:14;;;;;;;;;;;23.10;62.60;;;;;;4993628;28;20358;-69
2021/10/20 13:21:41;;;;;;;;;;;22.50;64.50;;;;;;4993440;28;19913;-67
2021/10/20 13:24:07;;;;;;;;;;;22.20;64.70;;;;;;4994153;28;19913;-67
2021/10/20 13:26:34;;;;;;;;;;;21.80;65.20;;;;;;4993624;28;19906;-69
2021/10/20 13:28:59;;;;;;;;;;;21.40;65.00;;;;;;4993450;28;20425;-68
2021/10/20 13:31:25;;;;;;;;;;;21.20;67.60;;;;;;4994057;28;19996;-69
2021/10/20 13:33:51;;;;;;;;;;;21.00;68.50;;;;;;4990469;28;19937;-66
2021/10/20 13:36:16;;;;;;;;;;;20.90;67.80;;;;;;4984679;28;19996;-69
2021/10/20 13:38:44;;;;;;;;;;;20.70;67.40;;;;;;4993624;28;19968;-68
2021/10/20 13:41:09;;;;;;;;;;;20.60;69.00;;;;;;4993402;28;19910;-68
2021/10/20 13:43:39;;;;;;;;;;;20.40;70.30;;;;;;4993538;28;19916;-67
2021/10/20 13:46:05;;;;;;;;;;;20.30;70.60;;;;;;4993577;28;20386;-67
2021/10/20 13:48:30;;;;;;;;;;;20.20;70.90;;;;;;4993604;28;19910;-67
2021/10/20 13:50:56;;;;;;;;;;;20.10;69.70;;;;;;4993915;28;20406;-67
2021/10/20 13:53:22;;;;;;;;;;;20.10;71.10;;;;;;4993515;28;19906;-70
2021/10/20 13:55:47;;;;;;;;;;;19.90;70.90;;;;;;4994540;28;19922;-68
2021/10/20 13:58:14;;;;;;;;;;;19.90;72.20;;;;;;4989189;28;19913;-70
2021/10/20 14:00:40;;;;;;;;;;;19.80;71.10;;;;;;4993442;28;19909;-68
2021/10/20 14:03:06;;;;;;;;;;;19.80;71.50;;;;;;4976425;28;19913;-70
2021/10/20 14:05:32;;;;;;;;;;;19.70;72.40;;;;;;4976868;28;20406;-67
2021/10/20 14:07:58;;;;;;;;;;;19.70;71.40;;;;;;4976976;28;20004;-67
2021/10/20 14:10:23;;;;;;;;;;;19.60;70.60;;;;;;4977596;28;20068;-69
2021/10/20 14:12:49;;;;;;;;;;;19.60;71.20;;;;;;4977085;28;19910;-68
2021/10/20 14:15:15;;;;;;;;;;;19.50;72.00;;;;;;4977233;28;19906;-67
2021/10/20 14:17:40;;;;;;;;;;;19.50;72.20;;;;;;4976020;28;19925;-70
2021/10/20 14:20:07;;;;;;;;;;;19.40;73.20;;;;;;4975828;28;20278;-69
2021/10/20 14:22:33;;;;;;;;;;;19.40;72.60;;;;;;4975637;28;19906;-66
2021/10/20 14:24:59;;;;;;;;;;;19.30;72.90;;;;;;4975519;28;20267;-69
2021/10/20 14:27:25;;;;;;;;;;;19.20;72.80;;;;;;4976715;28;19913;-70
2021/10/20 14:29:51;;;;;;;;;;;19.20;72.10;;;;;;4976813;28;20355;-69
2021/10/20 14:32:17;;;;;;;;;;;19.20;72.70;;;;;;4976949;28;19913;-68
2021/10/20 14:34:42;;;;;;;;;;;19.10;72.50;;;;;;4976968;28;19913;-70
2021/10/20 14:37:08;;;;;;;;;;;19.10;71.90;;;;;;4976470;28;19933;-68
2021/10/20 14:39:34;;;;;;;;;;;19.10;72.30;;;;;;4977239;28;19921;-69
2021/10/20 14:42:01;;;;;;;;;;;19.00;72.40;;;;;;4976731;28;19910;-70
2021/10/20 14:44:27;;;;;;;;;;;18.90;73.00;;;;;;4975590;28;19906;-70
2021/10/20 14:46:53;;;;;;;;;;;18.90;73.20;;;;;;4976640;28;19906;-68
2021/10/20 14:49:19;;;;;;;;;;;18.80;73.60;;;;;;4976816;28;19910;-70
2021/10/20 14:51:45;;;;;;;;;;;18.80;73.40;;;;;;4975440;28;19953;-68
2021/10/20 14:54:10;;;;;;;;;;;18.70;73.20;;;;;;4975202;28;19910;-69
2021/10/20 14:56:36;;;;;;;;;;;18.70;73.60;;;;;;4975280;28;19917;-68
2021/10/20 14:59:04;;;;;;;;;;;18.60;73.60;;;;;;4976924;28;19953;-68
2021/10/20 15:01:30;;;;;;;;;;;18.60;73.80;;;;;;4975067;28;20355;-69
2021/10/20 15:03:55;;;;;;;;;;;18.50;73.90;;;;;;4976223;28;19913;-69